Time;durP1;ratioP1;P1;durP2;ratioP2;P2;SDS_P1;SDS_P2;PMS_P1;PMS_P2;Temp;Humidity;BMP_temperature;BMP_pressure;BME280_temperature;BME280_humidity;BME280_pressure;Samples;Min_cycle;Max_cycle;Signal;HPM_P1;HPM_P2
2023/07/02 00:01:58;;;;;;;16.33;9.57;;;;;;;15.94;100.00;96806.25;4971370;28;20962;-70
2023/07/02 00:04:25;;;;;;;16.75;10.32;;;;;;;15.88;100.00;96815.47;4971618;28;20427;-70
2023/07/02 00:06:51;;;;;;;14.07;8.82;;;;;;;15.85;100.00;96811.53;4971490;28;20427;-70
2023/07/02 00:09:17;;;;;;;13.93;9.10;;;;;;;15.83;100.00;96813.69;4971648;28;20416;-70
2023/07/02 00:11:48;;;;;;;17.40;10.83;;;;;;;15.94;100.00;96816.16;4971455;28;20957;-70
2023/07/02 00:14:15;;;;;;;19.25;11.15;;;;;;;15.88;100.00;96810.91;4971688;28;20897;-70
2023/07/02 00:16:45;;;;;;;18.13;10.68;;;;;;;15.82;100.00;96814.78;5060102;23;20429;-69
2023/07/02 00:19:12;;;;;;;17.70;9.45;;;;;;;15.76;100.00;96812.50;5050105;28;20420;-69
2023/07/02 00:21:40;;;;;;;19.70;10.30;;;;;;;15.74;100.00;96812.81;5047146;28;20892;-69
2023/07/02 00:24:06;;;;;;;16.10;10.13;;;;;;;15.70;100.00;96811.84;5030064;28;20469;-69
2023/07/02 00:26:32;;;;;;;19.95;11.25;;;;;;;15.73;100.00;96816.56;5030201;28;20406;-70
2023/07/02 00:28:58;;;;;;;16.83;9.57;;;;;;;15.68;100.00;96819.34;5030251;28;20399;-69
2023/07/02 00:31:26;;;;;;;17.50;9.65;;;;;;;15.72;100.00;96822.97;5030102;28;20431;-69
2023/07/02 00:33:53;;;;;;;15.95;9.55;;;;;;;15.70;100.00;96816.38;5029999;28;20391;-69
2023/07/02 00:36:19;;;;;;;16.43;10.00;;;;;;;15.71;100.00;96820.63;5030067;28;20552;-69
2023/07/02 00:38:47;;;;;;;14.15;9.25;;;;;;;15.74;100.00;96830.69;5030093;28;20499;-68
2023/07/02 00:41:13;;;;;;;14.57;9.55;;;;;;;15.75;100.00;96817.06;5030066;28;20403;-69
2023/07/02 00:43:43;;;;;;;13.10;8.82;;;;;;;15.77;100.00;96820.22;5031726;28;20425;-69
2023/07/02 00:46:13;;;;;;;21.05;11.10;;;;;;;15.80;100.00;96827.63;5033693;28;20423;-69
2023/07/02 00:48:40;;;;;;;15.13;9.77;;;;;;;15.78;100.00;96818.34;5033629;28;20485;-69
2023/07/02 00:51:07;;;;;;;16.30;9.57;;;;;;;15.76;100.00;96818.66;5033577;28;20414;-69
2023/07/02 00:53:33;;;;;;;20.23;9.82;;;;;;;15.75;100.00;96824.28;5033316;28;20486;-69
2023/07/02 00:55:59;;;;;;;16.52;9.75;;;;;;;15.70;100.00;96819.84;5033517;28;20422;-69
2023/07/02 00:58:25;;;;;;;16.88;9.73;;;;;;;15.69;100.00;96818.25;5033432;28;20561;-69
2023/07/02 01:00:52;;;;;;;14.77;9.10;;;;;;;15.68;100.00;96813.22;5033383;28;20407;-69
2023/07/02 01:03:19;;;;;;;14.18;9.40;;;;;;;15.67;100.00;96827.63;5032995;28;20410;-69
2023/07/02 01:05:47;;;;;;;13.55;9.23;;;;;;;15.67;100.00;96830.31;5031568;28;20422;-69
2023/07/02 01:08:14;;;;;;;18.40;9.73;;;;;;;15.67;100.00;96828.44;5033358;28;20402;-69
2023/07/02 01:10:42;;;;;;;16.83;9.57;;;;;;;15.66;100.00;96826.84;5033175;28;20433;-69
2023/07/02 01:13:13;;;;;;;15.07;10.18;;;;;;;15.66;100.00;96823.38;5032959;28;20403;-69
2023/07/02 01:15:40;;;;;;;19.07;10.37;;;;;;;15.64;100.00;96829.00;5032987;28;20407;-69
2023/07/02 01:18:07;;;;;;;13.60;9.18;;;;;;;15.65;100.00;96824.47;5033073;28;20395;-69
2023/07/02 01:20:36;;;;;;;19.20;10.40;;;;;;;15.61;100.00;96834.94;5032984;28;20422;-69
2023/07/02 01:23:03;;;;;;;17.50;10.07;;;;;;;15.61;100.00;96836.81;5032652;28;20411;-69
2023/07/02 01:25:29;;;;;;;14.77;10.05;;;;;;;15.60;100.00;96837.91;5032797;28;20896;-69
2023/07/02 01:27:58;;;;;;;17.37;10.40;;;;;;;15.51;100.00;96840.44;5032953;28;20953;-69
2023/07/02 01:30:25;;;;;;;18.80;10.30;;;;;;;15.47;100.00;96840.25;5032831;28;20407;-69
2023/07/02 01:32:52;;;;;;;17.63;10.30;;;;;;;15.45;100.00;96836.28;5032496;28;20407;-69
2023/07/02 01:35:18;;;;;;;16.60;10.48;;;;;;;15.42;100.00;96831.53;5032829;28;20403;-69
2023/07/02 01:37:46;;;;;;;18.88;10.90;;;;;;;15.43;100.00;96831.25;5032787;28;20442;-69
2023/07/02 01:40:12;;;;;;;19.93;11.40;;;;;;;15.39;100.00;96827.59;5032949;28;20405;-69
2023/07/02 01:42:39;;;;;;;16.10;9.93;;;;;;;15.38;100.00;96822.56;5032355;28;20411;-69
2023/07/02 01:45:06;;;;;;;15.80;9.57;;;;;;;15.37;100.00;96820.97;5032500;28;20421;-69
2023/07/02 01:47:32;;;;;;;14.85;10.18;;;;;;;15.35;100.00;96815.94;5032535;28;20800;-69
2023/07/02 01:49:59;;;;;;;16.77;10.17;;;;;;;15.33;100.00;96807.44;5032659;28;20411;-69
2023/07/02 01:52:25;;;;;;;17.95;11.00;;;;;;;15.38;100.00;96814.56;5032250;28;20403;-69
2023/07/02 01:54:53;;;;;;;13.80;9.98;;;;;;;15.32;100.00;96811.19;5031760;28;20395;-69
2023/07/02 01:57:19;;;;;;;16.17;10.50;;;;;;;15.33;100.00;96825.31;5032368;28;20415;-69
2023/07/02 01:59:45;;;;;;;17.90;10.45;;;;;;;15.31;100.00;96822.16;5032318;28;20938;-69
2023/07/02 02:02:11;;;;;;;15.57;10.10;;;;;;;15.30;100.00;96828.56;5032011;28;20437;-69
2023/07/02 02:04:38;;;;;;;23.90;11.60;;;;;;;15.30;100.00;96834.69;5030809;28;20815;-69
2023/07/02 02:07:04;;;;;;;17.58;10.35;;;;;;;15.31;100.00;96828.28;5032219;28;20817;-70
2023/07/02 02:09:32;;;;;;;18.00;10.98;;;;;;;15.31;100.00;96830.94;5032227;28;20410;-69
2023/07/02 02:11:59;;;;;;;15.93;10.30;;;;;;;15.29;100.00;96838.44;5031818;28;20487;-69
2023/07/02 02:14:26;;;;;;;13.05;8.93;;;;;;;15.32;100.00;96840.53;5032078;28;20403;-69
2023/07/02 02:16:52;;;;;;;16.30;9.88;;;;;;;15.36;100.00;96840.72;5031963;28;20411;-69
2023/07/02 02:19:18;;;;;;;16.38;9.85;;;;;;;15.35;100.00;96829.25;5031933;28;20411;-69
2023/07/02 02:21:44;;;;;;;19.58;11.23;;;;;;;15.39;100.00;96838.28;5031817;28;20472;-70
2023/07/02 02:24:11;;;;;;;18.52;10.75;;;;;;;15.41;100.00;96833.41;5031676;28;20831;-69
2023/07/02 02:26:37;;;;;;;16.07;9.90;;;;;;;15.44;100.00;96834.72;5030578;28;20411;-69
2023/07/02 02:29:05;;;;;;;20.00;10.63;;;;;;;15.47;100.00;96828.78;5031829;28;20935;-69
2023/07/02 02:31:31;;;;;;;17.75;11.68;;;;;;;15.51;100.00;96821.78;5031527;28;20399;-69
2023/07/02 02:33:57;;;;;;;18.08;10.95;;;;;;;15.53;100.00;96824.16;5031612;28;20399;-69
2023/07/02 02:36:23;;;;;;;20.50;12.00;;;;;;;15.54;100.00;96829.22;5031798;28;20399;-69
2023/07/02 02:38:49;;;;;;;15.55;10.20;;;;;;;15.53;100.00;96835.63;5031584;28;20400;-69
2023/07/02 02:41:16;;;;;;;17.92;10.77;;;;;;;15.54;100.00;96831.09;5031599;28;20460;-69
2023/07/02 02:43:44;;;;;;;17.45;10.13;;;;;;;15.53;100.00;96835.63;5031202;28;20773;-69
2023/07/02 02:46:19;;;;;;;16.35;10.23;;;;;;;15.63;100.00;96837.34;5031440;28;20400;-69
2023/07/02 02:48:45;;;;;;;18.63;11.38;;;;;;;15.58;100.00;96835.53;5031511;28;20418;-69
2023/07/02 02:51:11;;;;;;;17.63;10.52;;;;;;;15.58;100.00;96832.06;5031445;28;20410;-69
2023/07/02 02:53:37;;;;;;;22.48;12.10;;;;;;;15.58;100.00;96835.53;5031159;28;20501;-69
2023/07/02 02:56:04;;;;;;;20.17;10.80;;;;;;;15.53;100.00;96835.63;5031371;28;20780;-69
2023/07/02 02:58:30;;;;;;;17.58;10.25;;;;;;;15.51;100.00;96840.44;5031377;28;20399;-69
2023/07/02 03:00:56;;;;;;;17.08;10.90;;;;;;;15.54;100.00;96850.56;5031202;28;20404;-69
2023/07/02 03:03:24;;;;;;;16.98;10.38;;;;;;;15.50;100.00;96849.53;5030901;28;20407;-69
2023/07/02 03:05:50;;;;;;;15.38;9.57;;;;;;;15.52;100.00;96859.91;5030663;28;20407;-69
2023/07/02 03:08:17;;;;;;;16.90;10.80;;;;;;;15.56;100.00;96859.06;5030536;28;20407;-69
2023/07/02 03:10:44;;;;;;;20.55;11.20;;;;;;;15.56;100.00;96861.75;5031192;28;20410;-69
2023/07/02 03:13:10;;;;;;;21.45;10.43;;;;;;;15.62;100.00;96867.75;5030831;28;20399;-69
2023/07/02 03:15:36;;;;;;;20.50;11.02;;;;;;;15.58;100.00;96878.22;5030871;28;20411;-69
2023/07/02 03:18:02;;;;;;;17.92;10.55;;;;;;;15.52;100.00;96879.38;5030875;28;20403;-69
2023/07/02 03:20:30;;;;;;;18.55;10.60;;;;;;;15.52;100.00;96874.03;5030706;28;20399;-69
2023/07/02 03:22:56;;;;;;;20.80;11.23;;;;;;;15.57;100.00;96881.19;5030604;28;20760;-69
2023/07/02 03:25:22;;;;;;;20.33;11.52;;;;;;;15.49;100.00;96882.63;5030754;28;20418;-69
2023/07/02 03:27:48;;;;;;;22.08;11.00;;;;;;;15.43;100.00;96884.59;5030786;28;20753;-69
2023/07/02 03:30:14;;;;;;;19.90;11.40;;;;;;;15.40;100.00;96889.75;5030918;28;20498;-69
2023/07/02 03:32:41;;;;;;;20.33;10.88;;;;;;;15.33;100.00;96900.00;5029157;28;20453;-69
2023/07/02 03:35:07;;;;;;;22.60;11.48;;;;;;;15.27;100.00;96898.47;5030738;28;20418;-69
2023/07/02 03:37:35;;;;;;;26.33;12.88;;;;;;;15.24;100.00;96905.19;5030598;28;20403;-69
2023/07/02 03:40:02;;;;;;;20.17;10.57;;;;;;;15.18;100.00;96895.72;5030708;28;20411;-69
2023/07/02 03:42:28;;;;;;;15.95;9.68;;;;;;;15.17;100.00;96899.47;5030323;28;20452;-69
2023/07/02 03:44:54;;;;;;;19.30;10.53;;;;;;;15.16;100.00;96907.75;5030585;28;21002;-69
2023/07/02 03:47:21;;;;;;;25.92;12.23;;;;;;;15.18;100.00;96894.91;5030509;28;20457;-69
2023/07/02 03:49:47;;;;;;;21.73;12.00;;;;;;;15.14;100.00;96907.22;5030624;28;20919;-69
2023/07/02 03:52:14;;;;;;;23.05;12.07;;;;;;;15.09;100.00;96908.13;5030290;28;20403;-69
2023/07/02 03:54:41;;;;;;;25.15;12.52;;;;;;;15.06;100.00;96916.69;5030620;28;20399;-69
2023/07/02 03:57:07;;;;;;;21.88;11.85;;;;;;;15.06;100.00;96922.00;5030550;28;20490;-69
2023/07/02 03:59:35;;;;;;;22.02;11.40;;;;;;;15.03;100.00;96922.63;5030863;28;20867;-69
2023/07/02 04:02:01;;;;;;;18.08;10.45;;;;;;;15.03;100.00;96926.06;5030241;28;20426;-69
2023/07/02 04:04:27;;;;;;;26.67;13.40;;;;;;;15.05;100.00;96923.88;5030692;28;20933;-69
2023/07/02 04:06:53;;;;;;;25.90;12.07;;;;;;;15.06;100.00;96928.13;5030371;28;20403;-69
2023/07/02 04:09:20;;;;;;;29.55;13.52;;;;;;;15.15;100.00;96935.47;5029147;28;20895;-69
2023/07/02 04:11:47;;;;;;;27.45;13.95;;;;;;;15.07;100.00;96943.06;5030368;28;20406;-69
2023/07/02 04:14:13;;;;;;;26.95;12.35;;;;;;;15.03;100.00;96938.59;5030358;28;20426;-69
2023/07/02 04:16:40;;;;;;;23.90;12.75;;;;;;;14.99;100.00;96938.38;5030234;28;20488;-69
2023/07/02 04:19:06;;;;;;;22.52;11.95;;;;;;;15.00;100.00;96937.31;5033256;28;20488;-69
2023/07/02 04:21:32;;;;;;;27.90;13.07;;;;;;;15.00;100.00;96937.31;5032758;28;20501;-69
2023/07/02 04:23:58;;;;;;;28.25;12.70;;;;;;;14.98;100.00;96941.31;5034166;28;20438;-69
2023/07/02 04:26:26;;;;;;;24.05;12.07;;;;;;;14.95;100.00;96942.72;5034376;28;20408;-69
2023/07/02 04:28:54;;;;;;;30.13;12.80;;;;;;;14.96;100.00;96933.63;5033059;28;20734;-69
2023/07/02 04:31:21;;;;;;;23.35;11.82;;;;;;;14.93;100.00;96920.88;5033963;28;20403;-69
2023/07/02 04:33:47;;;;;;;25.30;12.83;;;;;;;14.93;100.00;96928.88;5033949;28;20506;-69
2023/07/02 04:36:14;;;;;;;28.80;13.45;;;;;;;14.92;100.00;96921.97;5033954;28;20399;-69
2023/07/02 04:38:40;;;;;;;29.67;13.77;;;;;;;14.88;100.00;96944.97;5033969;28;20407;-69
2023/07/02 04:41:06;;;;;;;28.52;13.55;;;;;;;14.83;100.00;96947.69;5033942;28;20403;-69
2023/07/02 04:43:33;;;;;;;33.95;14.45;;;;;;;14.82;100.00;96946.09;5033459;28;20406;-69
2023/07/02 04:46:00;;;;;;;25.92;12.65;;;;;;;14.80;100.00;96952.81;5033698;28;20414;-69
2023/07/02 04:48:26;;;;;;;27.98;13.35;;;;;;;14.79;100.00;96936.03;5033727;28;20414;-69
2023/07/02 04:50:53;;;;;;;32.00;14.10;;;;;;;14.81;100.00;96943.75;5033680;28;20522;-68
2023/07/02 04:53:19;;;;;;;35.85;14.02;;;;;;;14.83;100.00;96936.22;5033428;28;20435;-68
2023/07/02 04:55:45;;;;;;;28.08;13.50;;;;;;;14.86;100.00;96941.00;5033523;28;20477;-68
2023/07/02 04:58:11;;;;;;;34.53;14.98;;;;;;;14.92;100.00;96943.28;5033451;28;20502;-68
2023/07/02 05:00:37;;;;;;;32.67;13.25;;;;;;;15.01;100.00;96957.56;5033374;28;20399;-68
2023/07/02 05:03:05;;;;;;;28.45;13.82;;;;;;;15.20;100.00;96954.84;5028478;28;20405;-68
2023/07/02 05:05:31;;;;;;;27.88;13.27;;;;;;;15.21;100.00;96953.78;5030858;28;20414;-68
2023/07/02 05:07:58;;;;;;;34.45;14.80;;;;;;;15.21;100.00;96961.78;5033923;28;20795;-68
2023/07/02 05:10:24;;;;;;;26.25;12.98;;;;;;;15.19;100.00;96961.25;5033602;28;20407;-68
2023/07/02 05:12:50;;;;;;;24.33;12.27;;;;;;;15.17;100.00;96958.13;5033524;28;20481;-68
2023/07/02 05:15:16;;;;;;;27.38;12.40;;;;;;;15.16;100.00;96964.53;5031888;28;20808;-68
2023/07/02 05:17:42;;;;;;;28.67;12.82;;;;;;;15.16;100.00;96969.06;5031850;28;21023;-68
2023/07/02 05:20:11;;;;;;;30.00;12.50;;;;;;;15.11;100.00;96969.91;5033066;28;20947;-68
2023/07/02 05:22:37;;;;;;;27.58;12.25;;;;;;;15.13;100.00;96974.97;5033194;28;20406;-68
2023/07/02 05:25:04;;;;;;;26.07;12.20;;;;;;;15.13;100.00;96980.28;5033296;28;20832;-68
2023/07/02 05:27:30;;;;;;;26.42;12.27;;;;;;;15.11;100.00;96984.03;5032632;28;20920;-68
2023/07/02 05:29:56;;;;;;;25.55;12.00;;;;;;;15.11;100.00;96981.38;5031675;28;20415;-68
2023/07/02 05:32:22;;;;;;;26.83;12.18;;;;;;;15.08;100.00;96987.28;5032184;28;20403;-68
2023/07/02 05:34:49;;;;;;;28.53;13.17;;;;;;;15.13;100.00;96990.97;5032557;28;20395;-68
2023/07/02 05:37:16;;;;;;;26.45;12.80;;;;;;;15.05;100.00;96982.53;5033388;28;20403;-68
2023/07/02 05:39:42;;;;;;;24.30;12.18;;;;;;;15.02;100.00;96987.66;5033206;28;20401;-68
2023/07/02 05:42:09;;;;;;;31.88;13.98;;;;;;;15.07;100.00;96988.38;5032747;28;20894;-69
2023/07/02 05:44:35;;;;;;;24.37;12.20;;;;;;;15.09;100.00;96980.09;5032915;28;20415;-69
2023/07/02 05:47:01;;;;;;;27.90;12.90;;;;;;;15.14;100.00;96987.22;5033044;28;20435;-68
2023/07/02 05:49:27;;;;;;;25.77;12.68;;;;;;;15.21;100.00;96984.97;5032502;28;20445;-68
2023/07/02 05:51:53;;;;;;;28.23;13.37;;;;;;;15.26;100.00;96995.56;5032583;28;20430;-68
2023/07/02 05:54:21;;;;;;;24.10;11.85;;;;;;;15.34;100.00;97002.88;5031463;28;20490;-68
2023/07/02 05:56:47;;;;;;;28.58;13.10;;;;;;;15.41;100.00;96998.78;5032863;28;20405;-68
2023/07/02 05:59:17;;;;;;;25.13;12.88;;;;;;;15.49;100.00;96994.66;5032647;28;20880;-68
2023/07/02 06:01:43;;;;;;;31.30;12.98;;;;;;;15.51;100.00;97011.16;5032407;28;20399;-68
2023/07/02 06:04:10;;;;;;;30.02;12.95;;;;;;;15.55;100.00;97004.22;5032365;28;20426;-68
2023/07/02 06:06:36;;;;;;;21.27;10.65;;;;;;;15.60;100.00;97008.66;5032528;28;20467;-68
2023/07/02 06:09:03;;;;;;;19.08;10.40;;;;;;;15.64;100.00;97012.31;5025286;28;20411;-68
2023/07/02 06:11:31;;;;;;;20.35;11.10;;;;;;;15.70;100.00;97008.50;5037885;28;20476;-68
2023/07/02 06:13:57;;;;;;;22.40;11.43;;;;;;;15.72;100.00;97006.31;5034570;28;20415;-68
2023/07/02 06:16:23;;;;;;;23.55;11.40;;;;;;;15.79;100.00;97004.84;5032097;28;20457;-68
2023/07/02 06:18:49;;;;;;;26.23;12.82;;;;;;;15.86;100.00;97009.81;5032200;28;20417;-69
2023/07/02 06:21:15;;;;;;;35.50;14.38;;;;;;;15.90;100.00;97013.47;5032210;28;20931;-69
2023/07/02 06:23:43;;;;;;;27.13;13.25;;;;;;;15.92;100.00;97011.31;5031962;28;20399;-68
2023/07/02 06:26:09;;;;;;;26.98;11.68;;;;;;;15.98;100.00;97010.13;5032173;28;20407;-68
2023/07/02 06:28:38;;;;;;;22.90;11.98;;;;;;;16.09;100.00;97018.72;5032058;28;20395;-69
2023/07/02 06:31:04;;;;;;;35.58;14.13;;;;;;;16.15;100.00;97021.03;5032003;28;20410;-69
2023/07/02 06:33:30;;;;;;;25.77;12.77;;;;;;;16.18;100.00;97022.31;5031463;28;20409;-69
2023/07/02 06:35:56;;;;;;;29.63;12.80;;;;;;;16.18;100.00;97017.75;5031925;28;20405;-69
2023/07/02 06:38:23;;;;;;;39.08;15.27;;;;;;;16.20;100.00;97020.16;5031861;28;20465;-68
2023/07/02 06:40:49;;;;;;;29.75;13.77;;;;;;;16.27;100.00;97020.53;5031717;28;20855;-68
2023/07/02 06:43:15;;;;;;;26.23;12.67;;;;;;;16.29;100.00;97021.06;5036377;28;20476;-68
2023/07/02 06:45:42;;;;;;;34.53;14.10;;;;;;;16.37;100.00;97019.56;5045096;28;20455;-69
2023/07/02 06:48:09;;;;;;;27.23;13.53;;;;;;;16.37;100.00;97024.91;5050657;28;20420;-69
2023/07/02 06:50:35;;;;;;;23.67;12.65;;;;;;;16.42;100.00;97024.81;5051612;28;20413;-69
2023/07/02 06:53:01;;;;;;;23.92;11.80;;;;;;;16.47;100.00;97027.38;5050559;28;20397;-69
2023/07/02 06:55:27;;;;;;;28.70;13.35;;;;;;;16.48;100.00;97026.28;5050644;28;20396;-69
2023/07/02 06:57:54;;;;;;;20.95;11.88;;;;;;;16.50;100.00;97027.56;5051463;28;20427;-69
2023/07/02 07:00:20;;;;;;;29.35;13.80;;;;;;;16.50;100.00;97024.91;5051453;28;20412;-69
2023/07/02 07:02:47;;;;;;;26.98;12.40;;;;;;;16.52;100.00;97030.75;5051158;28;20413;-69
2023/07/02 07:05:14;;;;;;;26.15;13.63;;;;;;;16.49;100.00;97028.66;5039058;28;20423;-69
2023/07/02 07:07:40;;;;;;;30.00;13.90;;;;;;;16.55;100.00;97032.81;5031120;28;20411;-68
2023/07/02 07:10:07;;;;;;;24.70;13.07;;;;;;;16.66;100.00;97030.78;5031283;28;20425;-68
2023/07/02 07:12:34;;;;;;;29.92;14.02;;;;;;;16.69;100.00;97040.84;5030962;28;20403;-68
2023/07/02 07:15:00;;;;;;;32.45;15.13;;;;;;;16.60;100.00;97040.78;5029292;28;20391;-69
2023/07/02 07:17:26;;;;;;;36.17;16.27;;;;;;;16.64;100.00;97039.06;5029477;28;20407;-69
2023/07/02 07:19:53;;;;;;;38.13;18.30;;;;;;;16.60;100.00;97034.59;5028643;28;20411;-68
2023/07/02 07:22:20;;;;;;;35.70;16.97;;;;;;;16.63;100.00;97032.16;5030463;28;20403;-68
2023/07/02 07:24:46;;;;;;;40.75;18.23;;;;;;;16.72;100.00;97034.91;5030842;28;20423;-68
2023/07/02 07:27:12;;;;;;;37.97;17.77;;;;;;;16.75;100.00;97038.88;5030768;28;20407;-69
2023/07/02 07:29:38;;;;;;;37.60;18.70;;;;;;;16.78;100.00;97030.25;5030841;28;20403;-69
2023/07/02 07:32:06;;;;;;;33.35;18.13;;;;;;;16.84;100.00;97037.09;5030413;28;20909;-69
2023/07/02 07:34:32;;;;;;;39.75;18.52;;;;;;;16.88;100.00;97032.72;5030836;28;20872;-68
2023/07/02 07:36:59;;;;;;;36.43;17.87;;;;;;;16.98;100.00;97037.88;5030667;28;20468;-68
2023/07/02 07:39:25;;;;;;;41.03;18.52;;;;;;;17.06;100.00;97036.34;5030727;28;20757;-69
2023/07/02 07:41:52;;;;;;;38.95;18.42;;;;;;;17.15;100.00;97037.19;5030307;28;20398;-69
2023/07/02 07:44:18;;;;;;;34.10;17.15;;;;;;;17.13;100.00;97039.41;5030589;28;20843;-69
2023/07/02 07:46:44;;;;;;;38.95;18.08;;;;;;;17.02;100.00;97044.19;5030523;28;20998;-69
2023/07/02 07:49:10;;;;;;;36.20;18.08;;;;;;;17.00;100.00;97041.00;5030628;28;20425;-69
2023/07/02 07:51:36;;;;;;;40.97;18.40;;;;;;;16.98;100.00;97043.22;5030333;28;20403;-68
2023/07/02 07:54:04;;;;;;;34.10;18.15;;;;;;;17.12;100.00;97040.50;5035832;28;20884;-68
2023/07/02 07:56:30;;;;;;;39.15;17.92;;;;;;;17.26;100.00;97043.94;5036830;28;20402;-69
2023/07/02 07:58:57;;;;;;;47.05;20.50;;;;;;;17.39;100.00;97045.75;5036867;28;20406;-69
2023/07/02 08:01:25;;;;;;;38.53;18.33;;;;;;;17.45;100.00;97033.84;5037116;28;20724;-69
2023/07/02 08:03:52;;;;;;;31.92;16.83;;;;;;;17.45;100.00;97027.69;5036613;28;20407;-68
2023/07/02 08:06:18;;;;;;;34.30;17.98;;;;;;;17.47;100.00;97020.16;5036879;28;20403;-69
2023/07/02 08:08:44;;;;;;;36.08;17.98;;;;;;;17.41;100.00;97028.31;5036849;28;20403;-69
2023/07/02 08:11:12;;;;;;;33.67;17.13;;;;;;;17.45;100.00;97028.47;5036700;28;20430;-68
2023/07/02 08:13:38;;;;;;;29.70;16.10;;;;;;;17.49;100.00;97020.66;5036534;28;20431;-69
2023/07/02 08:16:04;;;;;;;39.55;18.38;;;;;;;17.60;100.00;97022.78;5036734;28;20403;-69
2023/07/02 08:18:31;;;;;;;32.57;17.00;;;;;;;17.58;100.00;97022.31;5036793;28;20399;-69
2023/07/02 08:20:57;;;;;;;39.47;17.92;;;;;;;17.65;100.00;97027.25;5036761;28;20415;-68
2023/07/02 08:23:23;;;;;;;41.28;19.05;;;;;;;17.67;100.00;97025.03;5036528;28;20407;-69
2023/07/02 08:25:49;;;;;;;33.00;16.60;;;;;;;17.66;100.00;97026.16;5036566;28;20418;-69
2023/07/02 08:28:17;;;;;;;37.10;17.88;;;;;;;17.71;100.00;97028.72;5036701;28;20490;-69
2023/07/02 08:30:43;;;;;;;28.92;15.60;;;;;;;17.69;100.00;97028.22;5036849;28;20597;-69
2023/07/02 08:33:09;;;;;;;34.22;17.27;;;;;;;17.74;100.00;97023.53;5036395;28;20426;-69
2023/07/02 08:35:35;;;;;;;34.45;16.63;;;;;;;17.75;100.00;97022.44;5036676;28;20784;-69
2023/07/02 08:38:02;;;;;;;32.28;16.85;;;;;;;17.84;100.00;97027.84;5036607;28;20489;-69
2023/07/02 08:40:28;;;;;;;28.77;15.50;;;;;;;17.83;100.00;97022.78;5036733;28;20411;-69
2023/07/02 08:42:56;;;;;;;26.88;14.68;;;;;;;18.05;100.00;97039.63;5036349;28;20402;-68
2023/07/02 08:45:27;;;;;;;30.83;16.23;;;;;;;18.06;100.00;97030.47;5036481;28;20418;-69
2023/07/02 08:47:56;;;;;;;30.65;15.55;;;;;;;18.16;100.00;97032.91;5036642;28;20780;-69
2023/07/02 08:50:23;;;;;;;33.95;14.68;;;;;;;18.21;100.00;97050.72;5036498;28;20456;-68
2023/07/02 08:52:49;;;;;;;33.40;15.85;;;;;;;18.13;100.00;97044.22;5036390;28;20438;-69
2023/07/02 08:55:15;;;;;;;30.25;14.90;;;;;;;18.26;100.00;97039.09;5036384;28;20431;-69
2023/07/02 08:57:49;;;;;;;30.30;14.18;;;;;;;18.35;100.00;97035.34;5036646;28;20399;-69
2023/07/02 09:00:16;;;;;;;29.73;13.70;;;;;;;18.41;100.00;97054.78;5036529;28;20489;-68
2023/07/02 09:02:44;;;;;;;25.10;12.65;;;;;;;18.42;100.00;97035.69;5036318;28;20422;-69
2023/07/02 09:05:11;;;;;;;28.37;13.47;;;;;;;18.49;100.00;97035.25;5034274;28;20410;-69
2023/07/02 09:07:45;;;;;;;27.52;13.35;;;;;;;18.70;100.00;97032.81;5033448;28;20411;-69
2023/07/02 09:10:12;;;;;;;27.10;13.98;;;;;;;18.69;100.00;97029.34;5033426;28;20643;-69
2023/07/02 09:12:39;;;;;;;28.17;13.20;;;;;;;18.81;100.00;97028.72;5032957;28;20928;-69
2023/07/02 09:15:06;;;;;;;30.13;13.55;;;;;;;18.86;100.00;97024.03;5033043;28;20399;-69
2023/07/02 09:17:34;;;;;;;27.02;13.73;;;;;;;18.94;100.00;97027.84;5033279;28;20963;-69
2023/07/02 09:20:09;;;;;;;25.08;13.38;;;;;;;19.08;100.00;97033.06;5033211;28;20482;-69
2023/07/02 09:22:35;;;;;;;21.70;12.65;;;;;;;19.31;100.00;97046.03;5032808;28;20438;-69
2023/07/02 09:25:02;;;;;;;24.67;13.38;;;;;;;19.30;100.00;97025.66;5032966;28;20414;-69
2023/07/02 09:27:36;;;;;;;29.73;13.20;;;;;;;19.52;100.00;97037.38;5033098;28;20962;-69
2023/07/02 09:30:08;;;;;;;29.65;13.30;;;;;;;19.51;100.00;97030.41;5032829;28;20892;-69
2023/07/02 09:32:34;;;;;;;30.30;13.15;;;;;;;19.43;100.00;97029.28;5032660;28;20400;-68
2023/07/02 09:35:02;;;;;;;25.70;12.80;;;;;;;19.23;100.00;97033.38;5032822;28;20893;-69
2023/07/02 09:37:28;;;;;;;25.35;12.73;;;;;;;19.35;100.00;97040.81;5032888;28;20410;-68
2023/07/02 09:39:56;;;;;;;25.93;12.90;;;;;;;19.53;100.00;97014.78;5032924;28;20457;-69
2023/07/02 09:42:24;;;;;;;26.30;12.70;;;;;;;19.58;100.00;97025.34;5032622;28;20411;-69
2023/07/02 09:44:54;;;;;;;26.15;13.00;;;;;;;19.71;100.00;97019.78;5031296;28;20423;-69
2023/07/02 09:47:23;;;;;;;22.33;11.97;;;;;;;19.75;100.00;97022.66;5032562;28;20404;-69
2023/07/02 09:49:53;;;;;;;22.70;12.05;;;;;;;19.94;100.00;97025.75;5032751;28;20406;-68
2023/07/02 09:52:21;;;;;;;27.27;13.40;;;;;;;20.05;100.00;97027.00;5032444;28;20409;-68
2023/07/02 09:54:48;;;;;;;27.75;13.55;;;;;;;20.03;100.00;97023.06;5032434;28;20418;-68
2023/07/02 09:57:14;;;;;;;24.60;12.77;;;;;;;20.23;100.00;97018.88;5032527;28;20403;-68
2023/07/02 09:59:41;;;;;;;21.55;12.05;;;;;;;20.25;100.00;97022.81;5032418;28;20407;-68
2023/07/02 10:02:09;;;;;;;24.58;12.70;;;;;;;20.39;100.00;97017.25;5032069;28;20457;-68
2023/07/02 10:04:43;;;;;;;21.85;12.25;;;;;;;20.54;100.00;97014.03;5032383;28;20423;-68
2023/07/02 10:07:10;;;;;;;25.20;13.15;;;;;;;20.68;100.00;97013.78;5032338;28;20469;-68
2023/07/02 10:09:39;;;;;;;25.60;12.07;;;;;;;20.73;100.00;96994.78;5032319;28;20407;-68
2023/07/02 10:12:19;;;;;;;27.92;13.95;;;;;;;20.60;100.00;97004.66;5031630;28;20404;-68
2023/07/02 10:14:46;;;;;;;28.40;13.50;;;;;;;20.52;100.00;97002.81;5010941;28;20507;-68
2023/07/02 10:17:24;;;;;;;24.48;12.30;;;;;;;20.61;100.00;97011.63;5011824;28;20408;-68
2023/07/02 10:19:51;;;;;;;26.20;13.32;;;;;;;20.72;100.00;97010.16;5012213;28;20527;-68
2023/07/02 10:22:18;;;;;;;23.50;12.75;;;;;;;20.58;100.00;97014.19;5012021;28;20405;-68
2023/07/02 10:25:04;;;;;;;25.50;13.03;;;;;;;20.39;100.00;97015.34;5010983;28;20483;-68
2023/07/02 10:27:35;;;;;;;24.20;12.90;;;;;;;20.66;100.00;97008.75;5012400;28;20481;-68
2023/07/02 10:30:03;;;;;;;24.58;13.75;;;;;;;20.89;100.00;97008.47;5012206;28;20397;-68
2023/07/02 10:32:32;;;;;;;30.20;15.25;;;;;;;21.03;100.00;97004.41;5024309;28;20486;-68
2023/07/02 10:35:00;;;;;;;26.67;13.68;;;;;;;20.99;100.00;97005.38;5032131;28;20399;-68
2023/07/02 10:37:26;;;;;;;21.63;12.50;;;;;;;20.94;100.00;97009.06;5031757;28;20407;-68
2023/07/02 10:39:54;;;;;;;27.20;14.50;;;;;;;21.02;100.00;97008.22;5031813;28;20884;-68
2023/07/02 10:42:20;;;;;;;26.55;14.55;;;;;;;20.77;100.00;96998.41;5031440;28;20410;-68
2023/07/02 10:44:51;;;;;;;25.95;12.98;;;;;;;20.77;100.00;97011.84;5031628;28;20418;-68
2023/07/02 10:47:18;;;;;;;22.00;12.30;;;;;;;20.65;100.00;97009.88;5030362;28;20573;-69
2023/07/02 10:49:45;;;;;;;28.23;13.20;;;;;;;20.71;100.00;97013.16;5031382;28;20414;-69
2023/07/02 10:52:12;;;;;;;29.15;15.10;;;;;;;21.03;100.00;97015.19;5031129;28;20395;-68
2023/07/02 10:54:45;;;;;;;25.38;13.65;;;;;;;21.20;100.00;96996.22;5031431;28;20832;-68
2023/07/02 10:57:16;;;;;;;25.30;14.05;;;;;;;21.15;100.00;97022.53;5029722;28;20426;-68
2023/07/02 10:59:42;;;;;;;30.20;14.90;;;;;;;21.12;100.00;97025.88;5031512;28;20465;-68
2023/07/02 11:02:09;;;;;;;22.17;12.60;;;;;;;21.03;100.00;97019.78;5030884;28;20498;-68
2023/07/02 11:04:37;;;;;;;30.50;14.90;;;;;;;21.40;99.49;97010.81;5031147;28;20411;-68
2023/07/02 11:07:04;;;;;;;26.38;13.90;;;;;;;21.39;100.00;97008.44;5031005;28;20510;-68
2023/07/02 11:09:30;;;;;;;27.60;14.32;;;;;;;21.47;100.00;97010.28;5030893;28;20453;-68